createdAt,value
2023-01-20T00:00:33.841Z,26.97
2023-01-20T00:03:02.615Z,27.70
2023-01-20T00:05:33.891Z,26.53
2023-01-20T00:08:08.462Z,27.97
2023-01-20T00:10:43.080Z,29.83
2023-01-20T00:13:15.497Z,29.80
2023-01-20T00:15:51.200Z,29.67
2023-01-20T00:18:20.659Z,28.47
2023-01-20T00:20:50.667Z,27.43
2023-01-20T00:23:25.085Z,25.97
2023-01-20T00:25:52.821Z,26.03
2023-01-20T00:28:25.351Z,24.70
2023-01-20T00:31:00.368Z,25.20
2023-01-20T00:33:28.771Z,24.23
2023-01-20T00:38:43.707Z,23.27
2023-01-20T00:41:13.687Z,24.13
2023-01-20T00:43:42.710Z,22.93
2023-01-20T00:46:19.579Z,23.80
2023-01-20T00:48:52.768Z,23.80
2023-01-20T00:51:24.215Z,24.23
2023-01-20T00:54:01.107Z,23.53
2023-01-20T00:56:28.904Z,23.00
2023-01-20T00:58:58.471Z,22.53
2023-01-20T01:01:30.949Z,22.60
2023-01-20T01:04:01.482Z,21.17
2023-01-20T01:06:32.135Z,22.73
2023-01-20T01:09:03.297Z,21.67
2023-01-20T01:11:32.679Z,21.83
2023-01-20T01:14:00.731Z,21.83
2023-01-20T01:16:43.109Z,22.20
2023-01-20T01:19:11.120Z,22.13
2023-01-20T01:21:40.796Z,20.97
2023-01-20T01:24:11.053Z,23.13
2023-01-20T01:26:41.425Z,23.00
2023-01-20T01:29:10.243Z,24.13
2023-01-20T01:31:39.908Z,23.90
2023-01-20T01:34:08.092Z,22.40
2023-01-20T01:36:43.949Z,21.67
2023-01-20T01:39:19.077Z,21.37
2023-01-20T01:41:48.418Z,22.97
2023-01-20T01:44:18.697Z,23.17
2023-01-20T01:46:50.106Z,23.63
2023-01-20T01:49:27.452Z,23.47
2023-01-20T01:52:04.129Z,23.67
2023-01-20T01:54:48.626Z,23.93
2023-01-20T01:57:28.045Z,22.63
2023-01-20T01:59:58.102Z,23.07
2023-01-20T02:02:33.320Z,22.70
2023-01-20T02:05:05.862Z,23.30
2023-01-20T02:07:39.043Z,23.73
2023-01-20T02:10:09.716Z,22.73
2023-01-20T02:12:40.915Z,22.77
2023-01-20T02:15:15.976Z,21.37
2023-01-20T02:17:59.050Z,21.87
2023-01-20T02:21:03.084Z,21.97
2023-01-20T02:24:09.882Z,21.60
2023-01-20T02:27:10.064Z,23.23
2023-01-20T02:30:15.015Z,22.40
2023-01-20T02:32:54.125Z,22.77
2023-01-20T02:35:27.965Z,22.77
2023-01-20T02:38:16.073Z,22.73
2023-01-20T02:40:56.866Z,22.37
2023-01-20T02:43:41.616Z,24.53
2023-01-20T02:46:15.841Z,24.50
2023-01-20T02:48:57.644Z,27.27
2023-01-20T02:51:31.946Z,27.17
2023-01-20T02:54:06.654Z,26.60
2023-01-20T02:56:41.585Z,25.70
2023-01-20T02:59:17.898Z,26.27
2023-01-20T03:02:01.789Z,26.60
2023-01-20T03:04:37.180Z,26.73
2023-01-20T03:07:09.462Z,27.83
2023-01-20T03:09:45.805Z,27.13
2023-01-20T03:12:25.475Z,26.70
2023-01-20T03:14:54.723Z,26.33
2023-01-20T03:17:25.057Z,29.00
2023-01-20T03:19:59.235Z,29.67
2023-01-20T03:22:29.924Z,28.07
2023-01-20T03:25:05.137Z,28.43
2023-01-20T03:27:37.509Z,27.93
2023-01-20T03:30:09.756Z,26.70
2023-01-20T03:32:44.311Z,26.77
2023-01-20T03:35:17.290Z,28.80
2023-01-20T03:37:46.888Z,29.33
2023-01-20T03:40:17.728Z,30.10
2023-01-20T03:43:02.095Z,30.10
2023-01-20T03:45:36.647Z,29.30
2023-01-20T03:48:12.380Z,27.00
2023-01-20T03:50:52.113Z,26.70
2023-01-20T03:53:31.222Z,26.67
2023-01-20T03:56:05.873Z,27.37
2023-01-20T03:58:37.477Z,27.30
2023-01-20T04:01:18.167Z,26.13
2023-01-20T04:03:49.830Z,26.43
2023-01-20T04:06:25.245Z,26.20
2023-01-20T04:08:57.211Z,27.53
2023-01-20T04:11:28.691Z,26.87
2023-01-20T04:13:57.706Z,25.93
2023-01-20T04:16:31.789Z,26.00
2023-01-20T04:19:00.594Z,28.20
2023-01-20T04:21:35.007Z,25.83
2023-01-20T04:24:08.018Z,25.63
2023-01-20T04:26:36.975Z,24.70
2023-01-20T04:29:12.951Z,25.70
2023-01-20T04:31:42.871Z,25.60
2023-01-20T04:34:16.356Z,25.93
2023-01-20T04:36:51.771Z,27.83
2023-01-20T04:39:23.240Z,28.43
2023-01-20T04:42:01.329Z,26.00
2023-01-20T04:44:30.853Z,26.77
2023-01-20T04:46:59.840Z,26.77
2023-01-20T04:49:37.556Z,26.37
2023-01-20T04:52:14.644Z,25.77
2023-01-20T04:54:44.635Z,25.83
2023-01-20T04:57:17.800Z,26.47
2023-01-20T04:59:46.395Z,26.57
2023-01-20T05:02:15.159Z,26.00
2023-01-20T05:04:46.266Z,25.43
2023-01-20T05:07:18.469Z,25.60
2023-01-20T05:09:46.871Z,25.10
2023-01-20T05:12:17.640Z,26.67
2023-01-20T05:14:45.997Z,26.70
2023-01-20T05:17:24.579Z,26.30
2023-01-20T05:19:54.018Z,26.43
2023-01-20T05:22:27.802Z,27.03
2023-01-20T05:24:57.271Z,26.57
2023-01-20T05:27:25.923Z,26.67
2023-01-20T05:29:54.866Z,26.47
2023-01-20T05:32:24.449Z,25.80
2023-01-20T05:35:03.455Z,25.03
2023-01-20T05:37:36.259Z,24.70
2023-01-20T05:40:05.760Z,26.03
2023-01-20T05:42:49.298Z,26.20
2023-01-20T05:45:19.608Z,25.03
2023-01-20T05:47:50.042Z,25.27
2023-01-20T05:50:19.385Z,25.93
2023-01-20T05:52:57.369Z,25.37
2023-01-20T05:55:30.909Z,25.87
2023-01-20T05:58:02.890Z,26.97
2023-01-20T06:00:31.379Z,26.47
2023-01-20T06:03:09.702Z,27.97
2023-01-20T06:05:40.070Z,26.70
2023-01-20T06:08:09.320Z,26.80
2023-01-20T06:10:39.866Z,26.00
2023-01-20T06:13:10.038Z,24.33
2023-01-20T06:15:38.138Z,26.07
2023-01-20T06:18:06.100Z,26.53
2023-01-20T06:20:34.776Z,26.60
2023-01-20T06:25:50.939Z,26.53
2023-01-20T06:28:20.783Z,26.50
2023-01-20T06:30:52.133Z,27.00
2023-01-20T06:33:20.615Z,27.07
2023-01-20T06:35:49.391Z,25.03
2023-01-20T06:38:19.536Z,24.67
2023-01-20T06:40:53.096Z,23.87
2023-01-20T06:43:24.323Z,24.50
2023-01-20T06:45:59.018Z,23.70
2023-01-20T06:48:32.061Z,25.40
2023-01-20T06:51:05.140Z,24.83
2023-01-20T06:53:37.415Z,26.33
2023-01-20T06:56:09.282Z,29.97
2023-01-20T06:58:42.552Z,29.33
2023-01-20T07:01:13.325Z,27.23
2023-01-20T07:03:47.398Z,24.77
2023-01-20T07:06:20.044Z,25.37
2023-01-20T07:08:50.088Z,26.37
2023-01-20T07:11:32.388Z,24.03
2023-01-20T07:14:02.862Z,24.93
2023-01-20T07:16:33.856Z,25.93
2023-01-20T07:19:02.293Z,25.30
2023-01-20T07:21:36.518Z,25.77
2023-01-20T07:26:56.748Z,25.73
2023-01-20T07:29:27.811Z,25.83
2023-01-20T07:31:59.299Z,25.77
2023-01-20T07:34:29.960Z,25.67
2023-01-20T07:37:03.587Z,26.80
2023-01-20T07:39:36.334Z,26.77
2023-01-20T07:42:06.583Z,27.60
2023-01-20T07:44:34.349Z,25.87
2023-01-20T07:47:09.604Z,24.27
2023-01-20T07:49:41.274Z,25.67
2023-01-20T07:52:10.822Z,24.50
2023-01-20T07:54:40.719Z,28.07
2023-01-20T07:57:11.921Z,25.67
2023-01-20T07:59:44.001Z,23.93
2023-01-20T08:02:13.389Z,22.53
2023-01-20T08:04:44.074Z,23.33
2023-01-20T08:07:14.666Z,24.83
2023-01-20T08:09:44.421Z,25.10
2023-01-20T08:12:14.982Z,24.43
2023-01-20T08:14:43.203Z,26.13
2023-01-20T08:17:17.072Z,26.87
2023-01-20T08:19:46.273Z,24.53
2023-01-20T08:22:15.454Z,24.67
2023-01-20T08:24:43.862Z,24.60
2023-01-20T08:27:11.999Z,25.93
2023-01-20T08:29:43.296Z,25.83
2023-01-20T08:32:12.384Z,26.37
2023-01-20T08:34:41.049Z,27.67
2023-01-20T08:37:10.834Z,27.60
2023-01-20T08:39:44.018Z,28.70
2023-01-20T08:42:13.115Z,27.63
2023-01-20T08:44:43.802Z,27.37
2023-01-20T08:47:15.361Z,27.80
2023-01-20T08:49:56.978Z,29.57
2023-01-20T08:52:35.339Z,27.73
2023-01-20T08:55:14.715Z,27.33
2023-01-20T08:57:45.080Z,27.17
2023-01-20T09:00:19.041Z,27.80
2023-01-20T09:02:49.732Z,27.37
2023-01-20T09:05:21.315Z,26.97
2023-01-20T09:07:50.145Z,27.77
2023-01-20T09:10:20.971Z,27.67
2023-01-20T09:12:48.721Z,26.53
2023-01-20T09:15:25.444Z,28.90
2023-01-20T09:17:56.625Z,27.83
2023-01-20T09:20:28.318Z,30.30
2023-01-20T09:23:00.952Z,30.50
2023-01-20T09:25:28.737Z,29.70
2023-01-20T09:28:02.381Z,30.03
2023-01-20T09:30:33.521Z,30.33
2023-01-20T09:33:03.146Z,30.13
2023-01-20T09:35:32.873Z,28.90
2023-01-20T09:38:21.634Z,27.83
2023-01-20T09:41:20.314Z,27.93
2023-01-20T09:44:05.937Z,28.33
2023-01-20T09:47:10.684Z,30.07
2023-01-20T09:50:06.802Z,28.63
2023-01-20T09:52:57.751Z,28.23
2023-01-20T09:55:33.247Z,28.50
2023-01-20T09:58:12.754Z,29.37
2023-01-20T10:00:49.170Z,24.40
2023-01-20T10:03:39.459Z,23.97
2023-01-20T10:06:18.290Z,24.03
2023-01-20T10:09:04.991Z,24.27
2023-01-20T10:11:40.418Z,24.13
2023-01-20T10:14:17.013Z,22.53
2023-01-20T10:16:52.743Z,23.80
2023-01-20T10:19:31.005Z,23.03
2023-01-20T10:22:07.863Z,22.57
2023-01-20T10:24:45.578Z,21.27
2023-01-20T10:27:20.634Z,22.70
2023-01-20T10:29:58.268Z,22.17
2023-01-20T10:32:34.653Z,23.03
2023-01-20T10:35:11.272Z,21.03
2023-01-20T10:37:43.326Z,23.00
2023-01-20T10:40:27.471Z,22.60
2023-01-20T10:43:00.460Z,22.37
2023-01-20T10:45:41.785Z,21.43
2023-01-20T10:48:30.033Z,22.93
2023-01-20T10:51:06.632Z,22.60
2023-01-20T10:53:52.171Z,20.77
2023-01-20T10:56:45.441Z,22.40
2023-01-20T10:59:23.431Z,22.47
2023-01-20T11:02:11.250Z,22.23
2023-01-20T11:04:44.875Z,20.30
2023-01-20T11:07:21.471Z,20.17
2023-01-20T11:09:50.349Z,20.23
2023-01-20T11:12:31.044Z,17.90
2023-01-20T11:15:13.273Z,18.00
2023-01-20T11:17:56.264Z,16.80
2023-01-20T11:20:29.720Z,17.27
2023-01-20T11:23:05.892Z,16.80
2023-01-20T11:25:38.659Z,17.10
2023-01-20T11:28:21.569Z,16.67
2023-01-20T11:30:55.731Z,15.53
2023-01-20T11:33:26.308Z,16.80
2023-01-20T11:36:02.646Z,17.77
2023-01-20T11:38:42.146Z,17.20
2023-01-20T11:41:20.999Z,15.13
2023-01-20T11:43:52.315Z,13.70
2023-01-20T11:46:25.214Z,14.43
2023-01-20T11:49:20.894Z,14.17
2023-01-20T11:51:54.789Z,13.97
2023-01-20T11:54:25.575Z,14.20
2023-01-20T11:57:17.338Z,13.50
2023-01-20T11:59:55.110Z,13.53
2023-01-20T12:02:27.336Z,13.80
2023-01-20T12:05:10.666Z,12.47
2023-01-20T12:07:45.866Z,13.13
2023-01-20T12:10:28.569Z,13.10
2023-01-20T12:13:03.841Z,14.93
2023-01-20T12:15:45.350Z,14.37
2023-01-20T12:18:21.055Z,13.93
2023-01-20T12:20:57.514Z,13.93
2023-01-20T12:23:39.413Z,13.73
2023-01-20T12:26:21.785Z,14.80
2023-01-20T12:29:02.149Z,14.57
2023-01-20T12:31:32.757Z,13.70
2023-01-20T12:34:05.020Z,13.80
2023-01-20T12:36:51.379Z,13.73
2023-01-20T12:43:18.295Z,14.30
2023-01-20T12:46:09.285Z,11.03
2023-01-20T12:48:49.838Z,12.57
2023-01-20T12:51:40.600Z,9.90
2023-01-20T12:54:47.771Z,7.70
2023-01-20T12:57:34.583Z,10.60
2023-01-20T13:00:33.877Z,10.97
2023-01-20T13:03:51.161Z,10.90
2023-01-20T13:07:00.112Z,11.63
2023-01-20T13:10:01.501Z,12.47
2023-01-20T13:12:49.152Z,11.90
2023-01-20T13:15:24.358Z,11.27
2023-01-20T13:18:25.184Z,10.23
2023-01-20T13:20:55.959Z,10.50
2023-01-20T13:23:37.852Z,10.60
2023-01-20T13:26:07.729Z,10.93
2023-01-20T13:28:40.566Z,10.90
2023-01-20T13:31:36.851Z,11.70
2023-01-20T13:34:36.860Z,11.53
2023-01-20T13:37:35.855Z,11.80
2023-01-20T13:40:45.728Z,12.93
2023-01-20T13:43:57.315Z,12.07
2023-01-20T13:46:55.842Z,11.87
2023-01-20T13:49:54.779Z,11.60
2023-01-20T13:53:01.618Z,10.60
2023-01-20T13:55:31.641Z,11.00
2023-01-20T13:58:00.578Z,11.30
2023-01-20T14:00:30.882Z,11.93
2023-01-20T14:03:30.315Z,14.67
2023-01-20T14:06:03.595Z,14.77
2023-01-20T14:08:39.698Z,16.30
2023-01-20T14:11:15.398Z,17.83
2023-01-20T14:13:52.331Z,17.90
2023-01-20T14:16:25.732Z,18.53
2023-01-20T14:19:00.211Z,18.27
2023-01-20T14:21:31.441Z,18.00
2023-01-20T14:23:59.971Z,17.33
2023-01-20T14:26:31.301Z,18.50
2023-01-20T14:29:09.713Z,18.60
2023-01-20T14:31:45.992Z,18.57
2023-01-20T14:34:27.219Z,18.83
2023-01-20T14:37:05.943Z,19.17
2023-01-20T14:39:34.928Z,18.13
2023-01-20T14:42:07.154Z,18.77
2023-01-20T14:44:37.387Z,19.27
2023-01-20T14:47:07.269Z,19.50
2023-01-20T14:49:39.458Z,18.77
2023-01-20T14:52:09.544Z,19.73
2023-01-20T14:54:45.547Z,21.03
2023-01-20T14:57:28.914Z,20.13
2023-01-20T15:00:23.195Z,20.13
2023-01-20T15:03:10.398Z,19.60
2023-01-20T15:06:01.133Z,19.93
2023-01-20T15:09:04.418Z,19.13
2023-01-20T15:11:53.106Z,19.90
2023-01-20T15:14:32.493Z,19.27
2023-01-20T15:17:04.092Z,19.43
2023-01-20T15:19:36.522Z,20.77
2023-01-20T15:22:29.053Z,20.27
2023-01-20T15:25:07.512Z,20.30
2023-01-20T15:27:40.609Z,21.50
2023-01-20T15:30:25.211Z,20.87
2023-01-20T15:32:54.533Z,21.47
2023-01-20T15:35:26.884Z,22.53
2023-01-20T15:37:58.939Z,21.53
2023-01-20T15:40:29.162Z,21.37
2023-01-20T15:42:57.512Z,21.33
2023-01-20T15:45:26.901Z,20.33
2023-01-20T15:47:57.763Z,21.10
2023-01-20T15:50:28.880Z,21.20
2023-01-20T15:52:59.075Z,21.97
2023-01-20T15:55:33.133Z,20.67
2023-01-20T15:58:03.190Z,21.53
2023-01-20T16:00:33.660Z,22.20
2023-01-20T16:03:04.948Z,24.40
2023-01-20T16:05:34.806Z,24.13
2023-01-20T16:08:13.353Z,24.07
2023-01-20T16:10:41.780Z,22.10
2023-01-20T16:13:13.099Z,22.33
2023-01-20T16:15:51.795Z,22.13
2023-01-20T16:18:24.031Z,22.10
2023-01-20T16:20:52.131Z,21.90
2023-01-20T16:23:23.817Z,22.53
2023-01-20T16:25:52.648Z,21.90
2023-01-20T16:28:29.015Z,22.57
2023-01-20T16:31:02.931Z,20.23
2023-01-20T16:33:31.919Z,21.07
2023-01-20T16:36:08.029Z,20.93
2023-01-20T16:38:41.347Z,20.90
2023-01-20T16:41:21.903Z,19.73
2023-01-20T16:43:51.799Z,21.63
2023-01-20T16:46:24.959Z,21.37
2023-01-20T16:49:00.661Z,21.07
2023-01-20T16:51:30.601Z,21.77
2023-01-20T16:54:03.219Z,21.50
2023-01-20T16:56:33.071Z,21.60
2023-01-20T16:59:07.295Z,22.73
2023-01-20T17:01:35.295Z,23.13
2023-01-20T17:04:10.915Z,21.60
2023-01-20T17:06:43.285Z,23.30
2023-01-20T17:09:15.066Z,22.73
2023-01-20T17:11:43.289Z,22.93
2023-01-20T17:14:12.922Z,23.47
2023-01-20T17:16:42.643Z,24.00
2023-01-20T17:19:19.930Z,24.87
2023-01-20T17:21:54.674Z,22.83
2023-01-20T17:24:24.386Z,23.53
2023-01-20T17:26:59.361Z,22.50
2023-01-20T17:29:30.119Z,23.20
2023-01-20T17:32:00.006Z,23.17
2023-01-20T17:34:30.007Z,23.10
2023-01-20T17:37:00.789Z,22.10
2023-01-20T17:39:31.854Z,23.70
2023-01-20T17:42:03.185Z,24.00
2023-01-20T17:44:34.450Z,23.37
2023-01-20T17:47:05.522Z,21.93
2023-01-20T17:49:40.908Z,22.30
2023-01-20T17:52:10.383Z,21.83
2023-01-20T17:54:45.126Z,22.63
2023-01-20T17:57:15.113Z,23.37
2023-01-20T17:59:44.180Z,21.47
2023-01-20T18:02:12.237Z,20.67
2023-01-20T18:04:41.858Z,22.13
2023-01-20T18:07:09.944Z,20.00
2023-01-20T18:09:37.880Z,21.47
2023-01-20T18:12:10.295Z,21.10
2023-01-20T18:14:41.088Z,21.40
2023-01-20T18:17:13.660Z,21.57
2023-01-20T18:19:43.925Z,22.03
2023-01-20T18:22:14.536Z,21.63
2023-01-20T18:24:42.673Z,22.27
2023-01-20T18:27:12.258Z,19.13
2023-01-20T18:29:42.785Z,19.87
2023-01-20T18:32:10.949Z,19.23
2023-01-20T18:34:40.032Z,20.10
2023-01-20T18:37:11.593Z,19.67
2023-01-20T18:39:40.908Z,19.10
2023-01-20T18:42:12.375Z,19.67
2023-01-20T18:44:48.291Z,18.93
2023-01-20T18:47:16.551Z,20.07
2023-01-20T18:49:58.005Z,21.20
2023-01-20T18:52:26.178Z,21.20
2023-01-20T18:54:55.250Z,21.73
2023-01-20T18:57:24.207Z,20.60
2023-01-20T18:59:54.503Z,20.53
2023-01-20T19:02:24.227Z,20.17
2023-01-20T19:04:52.141Z,20.20
2023-01-20T19:07:23.350Z,20.70
2023-01-20T19:09:56.223Z,18.87
2023-01-20T19:12:27.718Z,18.93
2023-01-20T19:14:57.174Z,18.77
2023-01-20T19:17:29.257Z,18.40
2023-01-20T19:19:58.335Z,18.33
2023-01-20T19:22:28.803Z,19.40
2023-01-20T19:25:01.895Z,20.00
2023-01-20T19:27:32.363Z,19.23
2023-01-20T19:30:08.126Z,19.03
2023-01-20T19:32:37.081Z,19.70
2023-01-20T19:35:08.407Z,17.80
2023-01-20T19:37:44.064Z,17.17
2023-01-20T19:40:16.365Z,17.63
2023-01-20T19:42:51.269Z,16.90
2023-01-20T19:45:36.710Z,17.73
2023-01-20T19:48:12.463Z,14.90
2023-01-20T19:50:44.509Z,16.03
2023-01-20T19:53:13.739Z,16.37
2023-01-20T19:55:41.971Z,16.00
2023-01-20T19:58:14.160Z,17.43
2023-01-20T20:00:46.432Z,14.77
2023-01-20T20:03:19.181Z,15.40
2023-01-20T20:05:50.871Z,14.57
2023-01-20T20:08:19.720Z,16.10
2023-01-20T20:10:49.720Z,15.40
2023-01-20T20:13:21.976Z,15.77
2023-01-20T20:16:02.166Z,14.60
2023-01-20T20:18:29.976Z,14.57
2023-01-20T20:20:58.618Z,14.80
2023-01-20T20:23:28.054Z,16.60
2023-01-20T20:25:58.449Z,15.93
2023-01-20T20:28:29.891Z,15.50
2023-01-20T20:31:07.306Z,15.77
2023-01-20T20:33:36.875Z,17.50
2023-01-20T20:36:08.305Z,17.47
2023-01-20T20:38:36.967Z,18.80
2023-01-20T20:41:14.591Z,17.10
2023-01-20T20:43:46.337Z,17.47
2023-01-20T20:46:19.411Z,18.13
2023-01-20T20:48:55.240Z,17.67
2023-01-20T20:51:27.156Z,18.57
2023-01-20T20:53:57.151Z,18.73
2023-01-20T20:56:31.487Z,19.63
2023-01-20T20:59:02.779Z,20.13
2023-01-20T21:01:39.249Z,20.43
2023-01-20T21:04:08.260Z,21.07
2023-01-20T21:06:37.106Z,20.90
2023-01-20T21:09:05.000Z,21.43
2023-01-20T21:11:37.861Z,22.00
2023-01-20T21:14:07.303Z,21.80
2023-01-20T21:16:50.920Z,23.43
2023-01-20T21:19:20.809Z,23.17
2023-01-20T21:21:53.250Z,24.03
2023-01-20T21:24:26.036Z,23.80
2023-01-20T21:26:54.362Z,24.30
2023-01-20T21:29:36.188Z,24.30
2023-01-20T21:32:05.532Z,22.23
2023-01-20T21:34:33.923Z,22.57
2023-01-20T21:37:05.064Z,22.33
2023-01-20T21:39:39.334Z,23.00
2023-01-20T21:42:11.617Z,22.53
2023-01-20T21:44:43.325Z,21.97
2023-01-20T21:47:18.090Z,23.77
2023-01-20T21:50:04.815Z,24.37
2023-01-20T21:52:42.226Z,22.03
2023-01-20T21:55:18.464Z,22.13
2023-01-20T21:57:46.903Z,24.13
2023-01-20T22:00:18.956Z,23.07
2023-01-20T22:02:57.120Z,23.83
2023-01-20T22:05:28.075Z,23.47
2023-01-20T22:07:57.796Z,21.40
2023-01-20T22:10:27.306Z,20.70
2023-01-20T22:12:56.361Z,20.13
2023-01-20T22:15:24.700Z,20.33
2023-01-20T22:17:56.396Z,19.27
2023-01-20T22:20:24.254Z,19.50
2023-01-20T22:22:52.179Z,18.50
2023-01-20T22:25:24.319Z,19.37
2023-01-20T22:27:55.384Z,18.10
2023-01-20T22:30:27.730Z,18.57
2023-01-20T22:32:57.944Z,18.63
2023-01-20T22:35:26.320Z,19.47
2023-01-20T22:37:57.197Z,19.57
2023-01-20T22:40:25.557Z,19.57
2023-01-20T22:42:54.565Z,19.17
2023-01-20T22:45:30.608Z,19.77
2023-01-20T22:48:02.874Z,20.43
2023-01-20T22:50:34.915Z,17.73
2023-01-20T22:53:09.796Z,19.20
2023-01-20T22:55:49.022Z,19.70
2023-01-20T22:58:30.692Z,19.37
2023-01-20T23:00:59.966Z,19.63
2023-01-20T23:03:32.686Z,20.03
2023-01-20T23:06:06.264Z,18.17
2023-01-20T23:08:34.328Z,19.00
2023-01-20T23:11:06.627Z,18.57
2023-01-20T23:13:41.035Z,19.27
2023-01-20T23:16:14.994Z,18.23
2023-01-20T23:18:52.957Z,19.47
2023-01-20T23:21:21.830Z,19.00
2023-01-20T23:23:57.773Z,20.17
2023-01-20T23:26:29.067Z,18.93
2023-01-20T23:28:59.450Z,18.40
2023-01-20T23:31:34.047Z,20.97
2023-01-20T23:34:06.355Z,20.47
2023-01-20T23:36:35.947Z,20.00
2023-01-20T23:39:13.438Z,20.23
2023-01-20T23:41:41.734Z,20.50
2023-01-20T23:44:10.800Z,21.10
2023-01-20T23:46:40.021Z,20.20
2023-01-20T23:49:10.311Z,18.90
2023-01-20T23:51:41.422Z,19.27
2023-01-20T23:54:15.083Z,19.30
2023-01-20T23:56:49.348Z,18.53
2023-01-20T23:59:18.329Z,20.37
